Chandler Field Alexandria US
ICAO: KAXN
IATA: AXN
Category: Medium
Scheduled Services: No

Elevation: 1425 ft
TransAlt. 18000 ft.

Airport Communications:
ASOS:118.375
MINNEAPOLIS CNTR:126.1
PRINCETON RDO:122.6
CTAF/UNICOM:123

KAXN Zoom In..

Runways:

(A) RW 04 length 4098 ft width 75 ft
---- / hdg 45

(B) RW 13 length 5099 ft width 100 ft
---- / hdg 135

(C) RW 22 length 4098 ft width 75 ft
---- / hdg 225

(D) RW 31 length 5099 ft width 100 ft
ILS 110.50 / hdg 315

Location; KAXN
Day. 05 / Time. 17.53 Zulu
* Altimeter: 30.01
* Temperature: 24° c. 75.2°f.
* Wind from: 330° Speed 15 kn with Gusts up to 25 kn.
Dewpoint: 04° c.
Visibility: 10 Statute Miles.
Clouds: Clear (automated report).

KAXN 051753Z AUTO 33015G25KT 10SM CLR 24/04 A3001 RMK AO2 SLP161 T02440039 10244 20161 51008


Wind From 330°
Speed 15 kn.

 
 
jpsmedia worldairports.se 2020   terms of use